<?xml version="1.0" encoding="UTF-8" standalone="no" ?>
<gpx xmlns="http://www.topografix.com/GPX/1/1" xmlns:xsi="http://www.w3.org/2001/XMLSchema-instance" xsi:schemaLocation="http://www.topografix.com/GPX/1/1 http://www.topografix.com/GPX/1/1/gpx.xsd" version="1.1" creator="VisuGPX - https://www.visugpx.com">
  <metadata>
    <name>transléonarde 19.3km</name>
  </metadata>
  <trk>
    <name><![CDATA[Marche La Kerlouanaise 2024 - 18km-18487633]]></name>
    <trkseg>
      <trkpt lat="48.63373" lon="-4.40553">
        <ele>12</ele>
        <time>2024-03-12T16:11:05Z</time>
      </trkpt>
      <trkpt lat="48.63378" lon="-4.40385">
        <ele>13</ele>
        <time>2024-03-12T16:12:34Z</time>
      </trkpt>
      <trkpt lat="48.63397" lon="-4.40271">
        <ele>15</ele>
        <time>2024-03-12T16:13:36Z</time>
      </trkpt>
      <trkpt lat="48.63417" lon="-4.40268">
        <ele>15</ele>
        <time>2024-03-12T16:13:52Z</time>
      </trkpt>
      <trkpt lat="48.63434" lon="-4.40128">
        <ele>14</ele>
        <time>2024-03-12T16:15:08Z</time>
      </trkpt>
      <trkpt lat="48.63422" lon="-4.4007">
        <ele>15</ele>
        <time>2024-03-12T16:15:40Z</time>
      </trkpt>
      <trkpt lat="48.63416" lon="-4.40028">
        <ele>15</ele>
        <time>2024-03-12T16:16:03Z</time>
      </trkpt>
      <trkpt lat="48.63414" lon="-4.39972">
        <ele>15</ele>
        <time>2024-03-12T16:16:32Z</time>
      </trkpt>
      <trkpt lat="48.63399" lon="-4.39913">
        <ele>15</ele>
        <time>2024-03-12T16:17:06Z</time>
      </trkpt>
      <trkpt lat="48.63385" lon="-4.39907">
        <ele>15</ele>
        <time>2024-03-12T16:17:17Z</time>
      </trkpt>
      <trkpt lat="48.63394" lon="-4.39844">
        <ele>14</ele>
        <time>2024-03-12T16:17:51Z</time>
      </trkpt>
      <trkpt lat="48.63418" lon="-4.39785">
        <ele>12</ele>
        <time>2024-03-12T16:18:28Z</time>
      </trkpt>
      <trkpt lat="48.63473" lon="-4.39834">
        <ele>11</ele>
        <time>2024-03-12T16:19:19Z</time>
      </trkpt>
      <trkpt lat="48.63526" lon="-4.39844">
        <ele>9</ele>
        <time>2024-03-12T16:20:02Z</time>
      </trkpt>
      <trkpt lat="48.63549" lon="-4.39802">
        <ele>8</ele>
        <time>2024-03-12T16:20:31Z</time>
      </trkpt>
      <trkpt lat="48.6363" lon="-4.39729">
        <ele>5</ele>
        <time>2024-03-12T16:21:46Z</time>
      </trkpt>
      <trkpt lat="48.63745" lon="-4.39682">
        <ele>5</ele>
        <time>2024-03-12T16:23:22Z</time>
      </trkpt>
      <trkpt lat="48.63761" lon="-4.39656">
        <ele>5</ele>
        <time>2024-03-12T16:23:40Z</time>
      </trkpt>
      <trkpt lat="48.63782" lon="-4.39662">
        <ele>5</ele>
        <time>2024-03-12T16:23:58Z</time>
      </trkpt>
      <trkpt lat="48.63978" lon="-4.39589">
        <ele>7</ele>
        <time>2024-03-12T16:26:39Z</time>
      </trkpt>
      <trkpt lat="48.63998" lon="-4.39705">
        <ele>7</ele>
        <time>2024-03-12T16:27:43Z</time>
      </trkpt>
      <trkpt lat="48.64029" lon="-4.39799">
        <ele>5</ele>
        <time>2024-03-12T16:28:38Z</time>
      </trkpt>
      <trkpt lat="48.64096" lon="-4.39771">
        <ele>5</ele>
        <time>2024-03-12T16:29:34Z</time>
      </trkpt>
      <trkpt lat="48.64138" lon="-4.3975">
        <ele>5</ele>
        <time>2024-03-12T16:30:09Z</time>
      </trkpt>
      <trkpt lat="48.64258" lon="-4.397">
        <ele>5</ele>
        <time>2024-03-12T16:31:49Z</time>
      </trkpt>
      <trkpt lat="48.64364" lon="-4.39641">
        <ele>5</ele>
        <time>2024-03-12T16:33:19Z</time>
      </trkpt>
      <trkpt lat="48.64384" lon="-4.39635">
        <ele>5</ele>
        <time>2024-03-12T16:33:36Z</time>
      </trkpt>
      <trkpt lat="48.64395" lon="-4.39625">
        <ele>6</ele>
        <time>2024-03-12T16:33:46Z</time>
      </trkpt>
      <trkpt lat="48.64388" lon="-4.39602">
        <ele>6</ele>
        <time>2024-03-12T16:33:59Z</time>
      </trkpt>
      <trkpt lat="48.6439" lon="-4.39586">
        <ele>7</ele>
        <time>2024-03-12T16:34:08Z</time>
      </trkpt>
      <trkpt lat="48.64402" lon="-4.39583">
        <ele>7</ele>
        <time>2024-03-12T16:34:18Z</time>
      </trkpt>
      <trkpt lat="48.64413" lon="-4.39592">
        <ele>7</ele>
        <time>2024-03-12T16:34:28Z</time>
      </trkpt>
      <trkpt lat="48.64424" lon="-4.39597">
        <ele>7</ele>
        <time>2024-03-12T16:34:37Z</time>
      </trkpt>
      <trkpt lat="48.64435" lon="-4.39597">
        <ele>7</ele>
        <time>2024-03-12T16:34:46Z</time>
      </trkpt>
      <trkpt lat="48.64464" lon="-4.39581">
        <ele>8</ele>
        <time>2024-03-12T16:35:10Z</time>
      </trkpt>
      <trkpt lat="48.6458" lon="-4.39508">
        <ele>8</ele>
        <time>2024-03-12T16:36:51Z</time>
      </trkpt>
      <trkpt lat="48.64642" lon="-4.39481">
        <ele>10</ele>
        <time>2024-03-12T16:37:43Z</time>
      </trkpt>
      <trkpt lat="48.64665" lon="-4.39485">
        <ele>10</ele>
        <time>2024-03-12T16:38:01Z</time>
      </trkpt>
      <trkpt lat="48.64676" lon="-4.39491">
        <ele>10</ele>
        <time>2024-03-12T16:38:11Z</time>
      </trkpt>
      <trkpt lat="48.64685" lon="-4.39492">
        <ele>10</ele>
        <time>2024-03-12T16:38:18Z</time>
      </trkpt>
      <trkpt lat="48.64693" lon="-4.39488">
        <ele>10</ele>
        <time>2024-03-12T16:38:25Z</time>
      </trkpt>
      <trkpt lat="48.64703" lon="-4.39478">
        <ele>11</ele>
        <time>2024-03-12T16:38:34Z</time>
      </trkpt>
      <trkpt lat="48.64723" lon="-4.39464">
        <ele>11</ele>
        <time>2024-03-12T16:38:52Z</time>
      </trkpt>
      <trkpt lat="48.64735" lon="-4.3946">
        <ele>11</ele>
        <time>2024-03-12T16:39:02Z</time>
      </trkpt>
      <trkpt lat="48.64739" lon="-4.39463">
        <ele>11</ele>
        <time>2024-03-12T16:39:05Z</time>
      </trkpt>
      <trkpt lat="48.64735" lon="-4.3946">
        <ele>11</ele>
        <time>2024-03-12T16:39:09Z</time>
      </trkpt>
      <trkpt lat="48.64747" lon="-4.39431">
        <ele>11</ele>
        <time>2024-03-12T16:39:27Z</time>
      </trkpt>
      <trkpt lat="48.6476" lon="-4.39377">
        <ele>10</ele>
        <time>2024-03-12T16:39:57Z</time>
      </trkpt>
      <trkpt lat="48.64797" lon="-4.39264">
        <ele>9</ele>
        <time>2024-03-12T16:41:04Z</time>
      </trkpt>
      <trkpt lat="48.64865" lon="-4.39107">
        <ele>5</ele>
        <time>2024-03-12T16:42:43Z</time>
      </trkpt>
      <trkpt lat="48.64886" lon="-4.39067">
        <ele>5</ele>
        <time>2024-03-12T16:43:10Z</time>
      </trkpt>
      <trkpt lat="48.64899" lon="-4.39052">
        <ele>5</ele>
        <time>2024-03-12T16:43:23Z</time>
      </trkpt>
      <trkpt lat="48.64905" lon="-4.38996">
        <ele>6</ele>
        <time>2024-03-12T16:43:53Z</time>
      </trkpt>
      <trkpt lat="48.64924" lon="-4.38997">
        <ele>6</ele>
        <time>2024-03-12T16:44:09Z</time>
      </trkpt>
      <trkpt lat="48.64935" lon="-4.3899">
        <ele>6</ele>
        <time>2024-03-12T16:44:18Z</time>
      </trkpt>
      <trkpt lat="48.6495" lon="-4.38977">
        <ele>6</ele>
        <time>2024-03-12T16:44:32Z</time>
      </trkpt>
      <trkpt lat="48.65027" lon="-4.38891">
        <ele>6</ele>
        <time>2024-03-12T16:45:49Z</time>
      </trkpt>
      <trkpt lat="48.65043" lon="-4.38876">
        <ele>6</ele>
        <time>2024-03-12T16:46:04Z</time>
      </trkpt>
      <trkpt lat="48.65075" lon="-4.38857">
        <ele>7</ele>
        <time>2024-03-12T16:46:31Z</time>
      </trkpt>
      <trkpt lat="48.65096" lon="-4.38786">
        <ele>8</ele>
        <time>2024-03-12T16:47:12Z</time>
      </trkpt>
      <trkpt lat="48.65095" lon="-4.38676">
        <ele>8</ele>
        <time>2024-03-12T16:48:11Z</time>
      </trkpt>
      <trkpt lat="48.65076" lon="-4.38647">
        <ele>8</ele>
        <time>2024-03-12T16:48:32Z</time>
      </trkpt>
      <trkpt lat="48.65011" lon="-4.38589">
        <ele>7</ele>
        <time>2024-03-12T16:49:33Z</time>
      </trkpt>
      <trkpt lat="48.64976" lon="-4.3855">
        <ele>7</ele>
        <time>2024-03-12T16:50:07Z</time>
      </trkpt>
      <trkpt lat="48.64911" lon="-4.38426">
        <ele>6</ele>
        <time>2024-03-12T16:51:31Z</time>
      </trkpt>
      <trkpt lat="48.64898" lon="-4.38356">
        <ele>6</ele>
        <time>2024-03-12T16:52:10Z</time>
      </trkpt>
      <trkpt lat="48.64885" lon="-4.38311">
        <ele>6</ele>
        <time>2024-03-12T16:52:36Z</time>
      </trkpt>
      <trkpt lat="48.64883" lon="-4.38296">
        <ele>7</ele>
        <time>2024-03-12T16:52:44Z</time>
      </trkpt>
      <trkpt lat="48.64881" lon="-4.38239">
        <ele>7</ele>
        <time>2024-03-12T16:53:14Z</time>
      </trkpt>
      <trkpt lat="48.64886" lon="-4.38079">
        <ele>5</ele>
        <time>2024-03-12T16:54:39Z</time>
      </trkpt>
      <trkpt lat="48.64882" lon="-4.38066">
        <ele>5</ele>
        <time>2024-03-12T16:54:46Z</time>
      </trkpt>
      <trkpt lat="48.64869" lon="-4.38065">
        <ele>5</ele>
        <time>2024-03-12T16:54:57Z</time>
      </trkpt>
      <trkpt lat="48.64863" lon="-4.3806">
        <ele>5</ele>
        <time>2024-03-12T16:55:02Z</time>
      </trkpt>
      <trkpt lat="48.64787" lon="-4.37902">
        <ele>6</ele>
        <time>2024-03-12T16:56:45Z</time>
      </trkpt>
      <trkpt lat="48.64775" lon="-4.37881">
        <ele>6</ele>
        <time>2024-03-12T16:57:00Z</time>
      </trkpt>
      <trkpt lat="48.64761" lon="-4.37866">
        <ele>6</ele>
        <time>2024-03-12T16:57:14Z</time>
      </trkpt>
      <trkpt lat="48.64775" lon="-4.37865">
        <ele>6</ele>
        <time>2024-03-12T16:57:25Z</time>
      </trkpt>
      <trkpt lat="48.64814" lon="-4.37869">
        <ele>5</ele>
        <time>2024-03-12T16:57:56Z</time>
      </trkpt>
      <trkpt lat="48.64828" lon="-4.37867">
        <ele>5</ele>
        <time>2024-03-12T16:58:08Z</time>
      </trkpt>
      <trkpt lat="48.64963" lon="-4.37827">
        <ele>4</ele>
        <time>2024-03-12T16:59:58Z</time>
      </trkpt>
      <trkpt lat="48.65006" lon="-4.3781">
        <ele>3</ele>
        <time>2024-03-12T17:00:33Z</time>
      </trkpt>
      <trkpt lat="48.65032" lon="-4.37784">
        <ele>3</ele>
        <time>2024-03-12T17:00:58Z</time>
      </trkpt>
      <trkpt lat="48.65087" lon="-4.37722">
        <ele>4</ele>
        <time>2024-03-12T17:01:53Z</time>
      </trkpt>
      <trkpt lat="48.65111" lon="-4.37641">
        <ele>6</ele>
        <time>2024-03-12T17:02:40Z</time>
      </trkpt>
      <trkpt lat="48.65131" lon="-4.3753">
        <ele>9</ele>
        <time>2024-03-12T17:03:41Z</time>
      </trkpt>
      <trkpt lat="48.65146" lon="-4.37486">
        <ele>10</ele>
        <time>2024-03-12T17:04:07Z</time>
      </trkpt>
      <trkpt lat="48.65195" lon="-4.37515">
        <ele>10</ele>
        <time>2024-03-12T17:04:49Z</time>
      </trkpt>
      <trkpt lat="48.65273" lon="-4.37554">
        <ele>12</ele>
        <time>2024-03-12T17:05:55Z</time>
      </trkpt>
      <trkpt lat="48.65284" lon="-4.37557">
        <ele>12</ele>
        <time>2024-03-12T17:06:04Z</time>
      </trkpt>
      <trkpt lat="48.65293" lon="-4.37557">
        <ele>12</ele>
        <time>2024-03-12T17:06:11Z</time>
      </trkpt>
      <trkpt lat="48.65354" lon="-4.37545">
        <ele>13</ele>
        <time>2024-03-12T17:07:01Z</time>
      </trkpt>
      <trkpt lat="48.65388" lon="-4.37545">
        <ele>13</ele>
        <time>2024-03-12T17:07:28Z</time>
      </trkpt>
      <trkpt lat="48.65397" lon="-4.37523">
        <ele>13</ele>
        <time>2024-03-12T17:07:41Z</time>
      </trkpt>
      <trkpt lat="48.65399" lon="-4.37509">
        <ele>14</ele>
        <time>2024-03-12T17:07:49Z</time>
      </trkpt>
      <trkpt lat="48.65394" lon="-4.37486">
        <ele>13</ele>
        <time>2024-03-12T17:08:02Z</time>
      </trkpt>
      <trkpt lat="48.65385" lon="-4.37478">
        <ele>13</ele>
        <time>2024-03-12T17:08:10Z</time>
      </trkpt>
      <trkpt lat="48.6536" lon="-4.37469">
        <ele>13</ele>
        <time>2024-03-12T17:08:31Z</time>
      </trkpt>
      <trkpt lat="48.65354" lon="-4.37464">
        <ele>13</ele>
        <time>2024-03-12T17:08:36Z</time>
      </trkpt>
      <trkpt lat="48.65349" lon="-4.37446">
        <ele>12</ele>
        <time>2024-03-12T17:08:47Z</time>
      </trkpt>
      <trkpt lat="48.65347" lon="-4.3738">
        <ele>12</ele>
        <time>2024-03-12T17:09:22Z</time>
      </trkpt>
      <trkpt lat="48.65353" lon="-4.3729">
        <ele>12</ele>
        <time>2024-03-12T17:10:09Z</time>
      </trkpt>
      <trkpt lat="48.65351" lon="-4.37279">
        <ele>12</ele>
        <time>2024-03-12T17:10:15Z</time>
      </trkpt>
      <trkpt lat="48.65342" lon="-4.37263">
        <ele>12</ele>
        <time>2024-03-12T17:10:27Z</time>
      </trkpt>
      <trkpt lat="48.65348" lon="-4.37226">
        <ele>13</ele>
        <time>2024-03-12T17:10:47Z</time>
      </trkpt>
      <trkpt lat="48.6535" lon="-4.37232">
        <ele>12</ele>
        <time>2024-03-12T17:10:50Z</time>
      </trkpt>
      <trkpt lat="48.65511" lon="-4.37296">
        <ele>11</ele>
        <time>2024-03-12T17:13:04Z</time>
      </trkpt>
      <trkpt lat="48.65623" lon="-4.37354">
        <ele>10</ele>
        <time>2024-03-12T17:14:38Z</time>
      </trkpt>
      <trkpt lat="48.6564" lon="-4.37365">
        <ele>10</ele>
        <time>2024-03-12T17:14:53Z</time>
      </trkpt>
      <trkpt lat="48.65656" lon="-4.3737">
        <ele>10</ele>
        <time>2024-03-12T17:15:06Z</time>
      </trkpt>
      <trkpt lat="48.65672" lon="-4.37379">
        <ele>9</ele>
        <time>2024-03-12T17:15:20Z</time>
      </trkpt>
      <trkpt lat="48.65687" lon="-4.37411">
        <ele>9</ele>
        <time>2024-03-12T17:15:41Z</time>
      </trkpt>
      <trkpt lat="48.65705" lon="-4.37436">
        <ele>7</ele>
        <time>2024-03-12T17:16:00Z</time>
      </trkpt>
      <trkpt lat="48.65732" lon="-4.37453">
        <ele>6</ele>
        <time>2024-03-12T17:16:24Z</time>
      </trkpt>
      <trkpt lat="48.65765" lon="-4.37459">
        <ele>4</ele>
        <time>2024-03-12T17:16:50Z</time>
      </trkpt>
      <trkpt lat="48.65769" lon="-4.37405">
        <ele>4</ele>
        <time>2024-03-12T17:17:19Z</time>
      </trkpt>
      <trkpt lat="48.65769" lon="-4.37387">
        <ele>4</ele>
        <time>2024-03-12T17:17:28Z</time>
      </trkpt>
      <trkpt lat="48.65766" lon="-4.37373">
        <ele>4</ele>
        <time>2024-03-12T17:17:36Z</time>
      </trkpt>
      <trkpt lat="48.65769" lon="-4.37358">
        <ele>4</ele>
        <time>2024-03-12T17:17:45Z</time>
      </trkpt>
      <trkpt lat="48.65853" lon="-4.37194">
        <ele>4</ele>
        <time>2024-03-12T17:19:34Z</time>
      </trkpt>
      <trkpt lat="48.6589" lon="-4.37117">
        <ele>4</ele>
        <time>2024-03-12T17:20:25Z</time>
      </trkpt>
      <trkpt lat="48.65902" lon="-4.37083">
        <ele>4</ele>
        <time>2024-03-12T17:20:45Z</time>
      </trkpt>
      <trkpt lat="48.65905" lon="-4.37086">
        <ele>5</ele>
        <time>2024-03-12T17:20:48Z</time>
      </trkpt>
      <trkpt lat="48.65906" lon="-4.37079">
        <ele>5</ele>
        <time>2024-03-12T17:20:52Z</time>
      </trkpt>
      <trkpt lat="48.65905" lon="-4.37086">
        <ele>5</ele>
        <time>2024-03-12T17:20:55Z</time>
      </trkpt>
      <trkpt lat="48.65908" lon="-4.37091">
        <ele>5</ele>
        <time>2024-03-12T17:20:59Z</time>
      </trkpt>
      <trkpt lat="48.65973" lon="-4.37054">
        <ele>5</ele>
        <time>2024-03-12T17:21:55Z</time>
      </trkpt>
      <trkpt lat="48.65998" lon="-4.37023">
        <ele>5</ele>
        <time>2024-03-12T17:22:21Z</time>
      </trkpt>
      <trkpt lat="48.66012" lon="-4.37001">
        <ele>6</ele>
        <time>2024-03-12T17:22:37Z</time>
      </trkpt>
      <trkpt lat="48.66056" lon="-4.36952">
        <ele>7</ele>
        <time>2024-03-12T17:23:20Z</time>
      </trkpt>
      <trkpt lat="48.66083" lon="-4.36906">
        <ele>7</ele>
        <time>2024-03-12T17:23:53Z</time>
      </trkpt>
      <trkpt lat="48.66098" lon="-4.36874">
        <ele>7</ele>
        <time>2024-03-12T17:24:14Z</time>
      </trkpt>
      <trkpt lat="48.66106" lon="-4.36877">
        <ele>7</ele>
        <time>2024-03-12T17:24:20Z</time>
      </trkpt>
      <trkpt lat="48.66115" lon="-4.36886">
        <ele>7</ele>
        <time>2024-03-12T17:24:29Z</time>
      </trkpt>
      <trkpt lat="48.66179" lon="-4.37109">
        <ele>5</ele>
        <time>2024-03-12T17:26:38Z</time>
      </trkpt>
      <trkpt lat="48.6626" lon="-4.37053">
        <ele>6</ele>
        <time>2024-03-12T17:27:49Z</time>
      </trkpt>
      <trkpt lat="48.66266" lon="-4.37052">
        <ele>6</ele>
        <time>2024-03-12T17:27:54Z</time>
      </trkpt>
      <trkpt lat="48.66293" lon="-4.3695">
        <ele>7</ele>
        <time>2024-03-12T17:28:52Z</time>
      </trkpt>
      <trkpt lat="48.66301" lon="-4.36932">
        <ele>7</ele>
        <time>2024-03-12T17:29:03Z</time>
      </trkpt>
      <trkpt lat="48.66499" lon="-4.3707">
        <ele>6</ele>
        <time>2024-03-12T17:31:58Z</time>
      </trkpt>
      <trkpt lat="48.66652" lon="-4.37196">
        <ele>5</ele>
        <time>2024-03-12T17:34:17Z</time>
      </trkpt>
      <trkpt lat="48.66683" lon="-4.37233">
        <ele>5</ele>
        <time>2024-03-12T17:34:49Z</time>
      </trkpt>
      <trkpt lat="48.66706" lon="-4.37256">
        <ele>6</ele>
        <time>2024-03-12T17:35:11Z</time>
      </trkpt>
      <trkpt lat="48.66752" lon="-4.37316">
        <ele>6</ele>
        <time>2024-03-12T17:36:00Z</time>
      </trkpt>
      <trkpt lat="48.66758" lon="-4.3732">
        <ele>5</ele>
        <time>2024-03-12T17:36:05Z</time>
      </trkpt>
      <trkpt lat="48.66765" lon="-4.3732">
        <ele>5</ele>
        <time>2024-03-12T17:36:10Z</time>
      </trkpt>
      <trkpt lat="48.66774" lon="-4.37312">
        <ele>5</ele>
        <time>2024-03-12T17:36:19Z</time>
      </trkpt>
      <trkpt lat="48.66782" lon="-4.37318">
        <ele>5</ele>
        <time>2024-03-12T17:36:26Z</time>
      </trkpt>
      <trkpt lat="48.66762" lon="-4.37345">
        <ele>5</ele>
        <time>2024-03-12T17:36:47Z</time>
      </trkpt>
      <trkpt lat="48.66744" lon="-4.3736">
        <ele>5</ele>
        <time>2024-03-12T17:37:04Z</time>
      </trkpt>
      <trkpt lat="48.66735" lon="-4.37364">
        <ele>5</ele>
        <time>2024-03-12T17:37:11Z</time>
      </trkpt>
      <trkpt lat="48.66721" lon="-4.37367">
        <ele>5</ele>
        <time>2024-03-12T17:37:23Z</time>
      </trkpt>
      <trkpt lat="48.66699" lon="-4.37355">
        <ele>5</ele>
        <time>2024-03-12T17:37:41Z</time>
      </trkpt>
      <trkpt lat="48.6668" lon="-4.3735">
        <ele>5</ele>
        <time>2024-03-12T17:37:57Z</time>
      </trkpt>
      <trkpt lat="48.66659" lon="-4.37363">
        <ele>5</ele>
        <time>2024-03-12T17:38:15Z</time>
      </trkpt>
      <trkpt lat="48.66639" lon="-4.37392">
        <ele>5</ele>
        <time>2024-03-12T17:38:37Z</time>
      </trkpt>
      <trkpt lat="48.66631" lon="-4.37408">
        <ele>5</ele>
        <time>2024-03-12T17:38:48Z</time>
      </trkpt>
      <trkpt lat="48.66625" lon="-4.37431">
        <ele>5</ele>
        <time>2024-03-12T17:39:01Z</time>
      </trkpt>
      <trkpt lat="48.66613" lon="-4.37514">
        <ele>4</ele>
        <time>2024-03-12T17:39:46Z</time>
      </trkpt>
      <trkpt lat="48.66607" lon="-4.37522">
        <ele>4</ele>
        <time>2024-03-12T17:39:52Z</time>
      </trkpt>
      <trkpt lat="48.66608" lon="-4.37531">
        <ele>4</ele>
        <time>2024-03-12T17:39:57Z</time>
      </trkpt>
      <trkpt lat="48.66596" lon="-4.37534">
        <ele>4</ele>
        <time>2024-03-12T17:40:07Z</time>
      </trkpt>
      <trkpt lat="48.66581" lon="-4.37522">
        <ele>4</ele>
        <time>2024-03-12T17:40:20Z</time>
      </trkpt>
      <trkpt lat="48.66568" lon="-4.37517">
        <ele>4</ele>
        <time>2024-03-12T17:40:31Z</time>
      </trkpt>
      <trkpt lat="48.66538" lon="-4.37519">
        <ele>5</ele>
        <time>2024-03-12T17:40:55Z</time>
      </trkpt>
      <trkpt lat="48.66483" lon="-4.37529">
        <ele>5</ele>
        <time>2024-03-12T17:41:39Z</time>
      </trkpt>
      <trkpt lat="48.6647" lon="-4.37529">
        <ele>6</ele>
        <time>2024-03-12T17:41:50Z</time>
      </trkpt>
      <trkpt lat="48.66455" lon="-4.37547">
        <ele>5</ele>
        <time>2024-03-12T17:42:05Z</time>
      </trkpt>
      <trkpt lat="48.66409" lon="-4.37587">
        <ele>6</ele>
        <time>2024-03-12T17:42:48Z</time>
      </trkpt>
      <trkpt lat="48.66372" lon="-4.37628">
        <ele>5</ele>
        <time>2024-03-12T17:43:24Z</time>
      </trkpt>
      <trkpt lat="48.66336" lon="-4.37679">
        <ele>5</ele>
        <time>2024-03-12T17:44:04Z</time>
      </trkpt>
      <trkpt lat="48.66313" lon="-4.37722">
        <ele>5</ele>
        <time>2024-03-12T17:44:33Z</time>
      </trkpt>
      <trkpt lat="48.66292" lon="-4.37775">
        <ele>4</ele>
        <time>2024-03-12T17:45:06Z</time>
      </trkpt>
      <trkpt lat="48.66258" lon="-4.37901">
        <ele>5</ele>
        <time>2024-03-12T17:46:18Z</time>
      </trkpt>
      <trkpt lat="48.66255" lon="-4.37932">
        <ele>5</ele>
        <time>2024-03-12T17:46:34Z</time>
      </trkpt>
      <trkpt lat="48.66259" lon="-4.37957">
        <ele>5</ele>
        <time>2024-03-12T17:46:48Z</time>
      </trkpt>
      <trkpt lat="48.66257" lon="-4.37977">
        <ele>4</ele>
        <time>2024-03-12T17:46:59Z</time>
      </trkpt>
      <trkpt lat="48.66258" lon="-4.38012">
        <ele>3</ele>
        <time>2024-03-12T17:47:17Z</time>
      </trkpt>
      <trkpt lat="48.66265" lon="-4.38064">
        <ele>2</ele>
        <time>2024-03-12T17:47:45Z</time>
      </trkpt>
      <trkpt lat="48.66258" lon="-4.38078">
        <ele>2</ele>
        <time>2024-03-12T17:47:54Z</time>
      </trkpt>
      <trkpt lat="48.66245" lon="-4.38086">
        <ele>2</ele>
        <time>2024-03-12T17:48:06Z</time>
      </trkpt>
      <trkpt lat="48.66238" lon="-4.38086">
        <ele>2</ele>
        <time>2024-03-12T17:48:11Z</time>
      </trkpt>
      <trkpt lat="48.66215" lon="-4.38076">
        <ele>3</ele>
        <time>2024-03-12T17:48:30Z</time>
      </trkpt>
      <trkpt lat="48.66211" lon="-4.38077">
        <ele>3</ele>
        <time>2024-03-12T17:48:34Z</time>
      </trkpt>
      <trkpt lat="48.66188" lon="-4.38104">
        <ele>3</ele>
        <time>2024-03-12T17:48:57Z</time>
      </trkpt>
      <trkpt lat="48.66142" lon="-4.38147">
        <ele>3</ele>
        <time>2024-03-12T17:49:40Z</time>
      </trkpt>
      <trkpt lat="48.66144" lon="-4.38162">
        <ele>3</ele>
        <time>2024-03-12T17:49:48Z</time>
      </trkpt>
      <trkpt lat="48.66141" lon="-4.38171">
        <ele>3</ele>
        <time>2024-03-12T17:49:54Z</time>
      </trkpt>
      <trkpt lat="48.66151" lon="-4.38191">
        <ele>3</ele>
        <time>2024-03-12T17:50:07Z</time>
      </trkpt>
      <trkpt lat="48.66137" lon="-4.38233">
        <ele>3</ele>
        <time>2024-03-12T17:50:32Z</time>
      </trkpt>
      <trkpt lat="48.6613" lon="-4.38245">
        <ele>3</ele>
        <time>2024-03-12T17:50:40Z</time>
      </trkpt>
      <trkpt lat="48.66128" lon="-4.38256">
        <ele>3</ele>
        <time>2024-03-12T17:50:46Z</time>
      </trkpt>
      <trkpt lat="48.66121" lon="-4.38269">
        <ele>3</ele>
        <time>2024-03-12T17:50:55Z</time>
      </trkpt>
      <trkpt lat="48.66082" lon="-4.38302">
        <ele>5</ele>
        <time>2024-03-12T17:51:31Z</time>
      </trkpt>
      <trkpt lat="48.66082" lon="-4.38307">
        <ele>5</ele>
        <time>2024-03-12T17:51:34Z</time>
      </trkpt>
      <trkpt lat="48.66058" lon="-4.38356">
        <ele>4</ele>
        <time>2024-03-12T17:52:06Z</time>
      </trkpt>
      <trkpt lat="48.66037" lon="-4.38386">
        <ele>4</ele>
        <time>2024-03-12T17:52:29Z</time>
      </trkpt>
      <trkpt lat="48.66017" lon="-4.38431">
        <ele>4</ele>
        <time>2024-03-12T17:52:58Z</time>
      </trkpt>
      <trkpt lat="48.65996" lon="-4.38562">
        <ele>3</ele>
        <time>2024-03-12T17:54:09Z</time>
      </trkpt>
      <trkpt lat="48.65999" lon="-4.38638">
        <ele>4</ele>
        <time>2024-03-12T17:54:49Z</time>
      </trkpt>
      <trkpt lat="48.66029" lon="-4.38684">
        <ele>2</ele>
        <time>2024-03-12T17:55:24Z</time>
      </trkpt>
      <trkpt lat="48.66033" lon="-4.387">
        <ele>2</ele>
        <time>2024-03-12T17:55:33Z</time>
      </trkpt>
      <trkpt lat="48.66035" lon="-4.38752">
        <ele>2</ele>
        <time>2024-03-12T17:56:00Z</time>
      </trkpt>
      <trkpt lat="48.66026" lon="-4.38803">
        <ele>1</ele>
        <time>2024-03-12T17:56:28Z</time>
      </trkpt>
      <trkpt lat="48.66011" lon="-4.38828">
        <ele>1</ele>
        <time>2024-03-12T17:56:46Z</time>
      </trkpt>
      <trkpt lat="48.66008" lon="-4.38844">
        <ele>1</ele>
        <time>2024-03-12T17:56:55Z</time>
      </trkpt>
      <trkpt lat="48.65998" lon="-4.38863">
        <ele>1</ele>
        <time>2024-03-12T17:57:08Z</time>
      </trkpt>
      <trkpt lat="48.6596" lon="-4.38894">
        <ele>3</ele>
        <time>2024-03-12T17:57:42Z</time>
      </trkpt>
      <trkpt lat="48.65937" lon="-4.38908">
        <ele>4</ele>
        <time>2024-03-12T17:58:02Z</time>
      </trkpt>
      <trkpt lat="48.65911" lon="-4.38962">
        <ele>4</ele>
        <time>2024-03-12T17:58:37Z</time>
      </trkpt>
      <trkpt lat="48.65877" lon="-4.39012">
        <ele>4</ele>
        <time>2024-03-12T17:59:15Z</time>
      </trkpt>
      <trkpt lat="48.65762" lon="-4.39201">
        <ele>3</ele>
        <time>2024-03-12T18:01:31Z</time>
      </trkpt>
      <trkpt lat="48.65711" lon="-4.39348">
        <ele>3</ele>
        <time>2024-03-12T18:02:59Z</time>
      </trkpt>
      <trkpt lat="48.65709" lon="-4.39385">
        <ele>3</ele>
        <time>2024-03-12T18:03:19Z</time>
      </trkpt>
      <trkpt lat="48.6571" lon="-4.39411">
        <ele>3</ele>
        <time>2024-03-12T18:03:32Z</time>
      </trkpt>
      <trkpt lat="48.65715" lon="-4.39441">
        <ele>2</ele>
        <time>2024-03-12T18:03:49Z</time>
      </trkpt>
      <trkpt lat="48.65714" lon="-4.3945">
        <ele>2</ele>
        <time>2024-03-12T18:03:54Z</time>
      </trkpt>
      <trkpt lat="48.65672" lon="-4.39505">
        <ele>2</ele>
        <time>2024-03-12T18:04:38Z</time>
      </trkpt>
      <trkpt lat="48.65635" lon="-4.39562">
        <ele>2</ele>
        <time>2024-03-12T18:05:20Z</time>
      </trkpt>
      <trkpt lat="48.65623" lon="-4.3959">
        <ele>2</ele>
        <time>2024-03-12T18:05:38Z</time>
      </trkpt>
      <trkpt lat="48.65609" lon="-4.3961">
        <ele>2</ele>
        <time>2024-03-12T18:05:53Z</time>
      </trkpt>
      <trkpt lat="48.65577" lon="-4.39714">
        <ele>2</ele>
        <time>2024-03-12T18:06:54Z</time>
      </trkpt>
      <trkpt lat="48.65564" lon="-4.3978">
        <ele>2</ele>
        <time>2024-03-12T18:07:30Z</time>
      </trkpt>
      <trkpt lat="48.65553" lon="-4.39821">
        <ele>2</ele>
        <time>2024-03-12T18:07:54Z</time>
      </trkpt>
      <trkpt lat="48.65544" lon="-4.39842">
        <ele>2</ele>
        <time>2024-03-12T18:08:07Z</time>
      </trkpt>
      <trkpt lat="48.65535" lon="-4.39928">
        <ele>2</ele>
        <time>2024-03-12T18:08:53Z</time>
      </trkpt>
      <trkpt lat="48.65521" lon="-4.40005">
        <ele>3</ele>
        <time>2024-03-12T18:09:35Z</time>
      </trkpt>
      <trkpt lat="48.65506" lon="-4.40067">
        <ele>4</ele>
        <time>2024-03-12T18:10:10Z</time>
      </trkpt>
      <trkpt lat="48.65486" lon="-4.40198">
        <ele>3</ele>
        <time>2024-03-12T18:11:21Z</time>
      </trkpt>
      <trkpt lat="48.65483" lon="-4.40211">
        <ele>3</ele>
        <time>2024-03-12T18:11:29Z</time>
      </trkpt>
      <trkpt lat="48.65472" lon="-4.40235">
        <ele>4</ele>
        <time>2024-03-12T18:11:44Z</time>
      </trkpt>
      <trkpt lat="48.65471" lon="-4.40279">
        <ele>3</ele>
        <time>2024-03-12T18:12:07Z</time>
      </trkpt>
      <trkpt lat="48.65464" lon="-4.4036">
        <ele>2</ele>
        <time>2024-03-12T18:12:51Z</time>
      </trkpt>
      <trkpt lat="48.65455" lon="-4.40442">
        <ele>2</ele>
        <time>2024-03-12T18:13:35Z</time>
      </trkpt>
      <trkpt lat="48.65445" lon="-4.40483">
        <ele>3</ele>
        <time>2024-03-12T18:13:58Z</time>
      </trkpt>
      <trkpt lat="48.65442" lon="-4.40563">
        <ele>4</ele>
        <time>2024-03-12T18:14:40Z</time>
      </trkpt>
      <trkpt lat="48.65433" lon="-4.40624">
        <ele>3</ele>
        <time>2024-03-12T18:15:13Z</time>
      </trkpt>
      <trkpt lat="48.65413" lon="-4.40846">
        <ele>1</ele>
        <time>2024-03-12T18:17:12Z</time>
      </trkpt>
      <trkpt lat="48.65391" lon="-4.40884">
        <ele>3</ele>
        <time>2024-03-12T18:17:38Z</time>
      </trkpt>
      <trkpt lat="48.65383" lon="-4.40891">
        <ele>4</ele>
        <time>2024-03-12T18:17:46Z</time>
      </trkpt>
      <trkpt lat="48.6538" lon="-4.40931">
        <ele>4</ele>
        <time>2024-03-12T18:18:07Z</time>
      </trkpt>
      <trkpt lat="48.65372" lon="-4.40945">
        <ele>5</ele>
        <time>2024-03-12T18:18:17Z</time>
      </trkpt>
      <trkpt lat="48.65389" lon="-4.41029">
        <ele>5</ele>
        <time>2024-03-12T18:19:03Z</time>
      </trkpt>
      <trkpt lat="48.65429" lon="-4.41166">
        <ele>7</ele>
        <time>2024-03-12T18:20:23Z</time>
      </trkpt>
      <trkpt lat="48.65432" lon="-4.41198">
        <ele>7</ele>
        <time>2024-03-12T18:20:40Z</time>
      </trkpt>
      <trkpt lat="48.6543" lon="-4.4123">
        <ele>8</ele>
        <time>2024-03-12T18:20:57Z</time>
      </trkpt>
      <trkpt lat="48.65418" lon="-4.41299">
        <ele>9</ele>
        <time>2024-03-12T18:21:34Z</time>
      </trkpt>
      <trkpt lat="48.65413" lon="-4.41356">
        <ele>9</ele>
        <time>2024-03-12T18:22:05Z</time>
      </trkpt>
      <trkpt lat="48.65406" lon="-4.414">
        <ele>8</ele>
        <time>2024-03-12T18:22:29Z</time>
      </trkpt>
      <trkpt lat="48.65385" lon="-4.41481">
        <ele>8</ele>
        <time>2024-03-12T18:23:15Z</time>
      </trkpt>
      <trkpt lat="48.65359" lon="-4.41555">
        <ele>7</ele>
        <time>2024-03-12T18:23:59Z</time>
      </trkpt>
      <trkpt lat="48.65439" lon="-4.41598">
        <ele>5</ele>
        <time>2024-03-12T18:25:07Z</time>
      </trkpt>
      <trkpt lat="48.65465" lon="-4.41616">
        <ele>3</ele>
        <time>2024-03-12T18:25:30Z</time>
      </trkpt>
      <trkpt lat="48.65466" lon="-4.4163">
        <ele>3</ele>
        <time>2024-03-12T18:25:37Z</time>
      </trkpt>
      <trkpt lat="48.6548" lon="-4.41682">
        <ele>1</ele>
        <time>2024-03-12T18:26:07Z</time>
      </trkpt>
      <trkpt lat="48.65476" lon="-4.41705">
        <ele>1</ele>
        <time>2024-03-12T18:26:20Z</time>
      </trkpt>
      <trkpt lat="48.65474" lon="-4.41746">
        <ele>1</ele>
        <time>2024-03-12T18:26:41Z</time>
      </trkpt>
      <trkpt lat="48.6547" lon="-4.41763">
        <ele>1</ele>
        <time>2024-03-12T18:26:51Z</time>
      </trkpt>
      <trkpt lat="48.65454" lon="-4.41791">
        <ele>1</ele>
        <time>2024-03-12T18:27:11Z</time>
      </trkpt>
      <trkpt lat="48.65429" lon="-4.4187">
        <ele>9.1</ele>
        <time>2024-03-12T18:27:57Z</time>
      </trkpt>
      <trkpt lat="48.65406" lon="-4.41906">
        <ele>1</ele>
        <time>2024-03-12T18:28:23Z</time>
      </trkpt>
      <trkpt lat="48.65385" lon="-4.4193">
        <ele>2</ele>
        <time>2024-03-12T18:28:45Z</time>
      </trkpt>
      <trkpt lat="48.65379" lon="-4.41954">
        <ele>2</ele>
        <time>2024-03-12T18:28:58Z</time>
      </trkpt>
      <trkpt lat="48.65383" lon="-4.41975">
        <ele>2</ele>
        <time>2024-03-12T18:29:10Z</time>
      </trkpt>
      <trkpt lat="48.65383" lon="-4.41994">
        <ele>2</ele>
        <time>2024-03-12T18:29:20Z</time>
      </trkpt>
      <trkpt lat="48.65376" lon="-4.42017">
        <ele>2</ele>
        <time>2024-03-12T18:29:33Z</time>
      </trkpt>
      <trkpt lat="48.65355" lon="-4.4205">
        <ele>3</ele>
        <time>2024-03-12T18:29:57Z</time>
      </trkpt>
      <trkpt lat="48.6534" lon="-4.42093">
        <ele>3</ele>
        <time>2024-03-12T18:30:23Z</time>
      </trkpt>
      <trkpt lat="48.65309" lon="-4.42153">
        <ele>3</ele>
        <time>2024-03-12T18:31:03Z</time>
      </trkpt>
      <trkpt lat="48.65297" lon="-4.42168">
        <ele>4</ele>
        <time>2024-03-12T18:31:16Z</time>
      </trkpt>
      <trkpt lat="48.65264" lon="-4.42196">
        <ele>5</ele>
        <time>2024-03-12T18:31:46Z</time>
      </trkpt>
      <trkpt lat="48.65263" lon="-4.42202">
        <ele>5</ele>
        <time>2024-03-12T18:31:49Z</time>
      </trkpt>
      <trkpt lat="48.65267" lon="-4.42221">
        <ele>5</ele>
        <time>2024-03-12T18:32:00Z</time>
      </trkpt>
      <trkpt lat="48.65271" lon="-4.42272">
        <ele>4</ele>
        <time>2024-03-12T18:32:27Z</time>
      </trkpt>
      <trkpt lat="48.6527" lon="-4.42305">
        <ele>4</ele>
        <time>2024-03-12T18:32:45Z</time>
      </trkpt>
      <trkpt lat="48.6526" lon="-4.42369">
        <ele>4</ele>
        <time>2024-03-12T18:33:19Z</time>
      </trkpt>
      <trkpt lat="48.65249" lon="-4.42424">
        <ele>5</ele>
        <time>2024-03-12T18:33:50Z</time>
      </trkpt>
      <trkpt lat="48.65232" lon="-4.42484">
        <ele>4</ele>
        <time>2024-03-12T18:34:24Z</time>
      </trkpt>
      <trkpt lat="48.65213" lon="-4.42634">
        <ele>5</ele>
        <time>2024-03-12T18:35:45Z</time>
      </trkpt>
      <trkpt lat="48.65195" lon="-4.42676">
        <ele>5</ele>
        <time>2024-03-12T18:36:12Z</time>
      </trkpt>
      <trkpt lat="48.65184" lon="-4.42686">
        <ele>6</ele>
        <time>2024-03-12T18:36:22Z</time>
      </trkpt>
      <trkpt lat="48.65183" lon="-4.42702">
        <ele>6</ele>
        <time>2024-03-12T18:36:30Z</time>
      </trkpt>
      <trkpt lat="48.65186" lon="-4.4271">
        <ele>5</ele>
        <time>2024-03-12T18:36:35Z</time>
      </trkpt>
      <trkpt lat="48.65189" lon="-4.42712">
        <ele>5</ele>
        <time>2024-03-12T18:36:38Z</time>
      </trkpt>
      <trkpt lat="48.6521" lon="-4.42791">
        <ele>4</ele>
        <time>2024-03-12T18:37:23Z</time>
      </trkpt>
      <trkpt lat="48.65222" lon="-4.42878">
        <ele>3</ele>
        <time>2024-03-12T18:38:10Z</time>
      </trkpt>
      <trkpt lat="48.65238" lon="-4.42916">
        <ele>3</ele>
        <time>2024-03-12T18:38:34Z</time>
      </trkpt>
      <trkpt lat="48.65236" lon="-4.42931">
        <ele>3</ele>
        <time>2024-03-12T18:38:42Z</time>
      </trkpt>
      <trkpt lat="48.65233" lon="-4.42936">
        <ele>4</ele>
        <time>2024-03-12T18:38:45Z</time>
      </trkpt>
      <trkpt lat="48.65251" lon="-4.42971">
        <ele>5</ele>
        <time>2024-03-12T18:39:09Z</time>
      </trkpt>
      <trkpt lat="48.65303" lon="-4.43052">
        <ele>4</ele>
        <time>2024-03-12T18:40:09Z</time>
      </trkpt>
      <trkpt lat="48.65314" lon="-4.43062">
        <ele>4</ele>
        <time>2024-03-12T18:40:19Z</time>
      </trkpt>
      <trkpt lat="48.65334" lon="-4.43073">
        <ele>4</ele>
        <time>2024-03-12T18:40:36Z</time>
      </trkpt>
      <trkpt lat="48.65357" lon="-4.43106">
        <ele>5</ele>
        <time>2024-03-12T18:41:01Z</time>
      </trkpt>
      <trkpt lat="48.65376" lon="-4.43125">
        <ele>5</ele>
        <time>2024-03-12T18:41:19Z</time>
      </trkpt>
      <trkpt lat="48.65387" lon="-4.43124">
        <ele>5</ele>
        <time>2024-03-12T18:41:28Z</time>
      </trkpt>
      <trkpt lat="48.65397" lon="-4.43128">
        <ele>5</ele>
        <time>2024-03-12T18:41:37Z</time>
      </trkpt>
      <trkpt lat="48.65412" lon="-4.43125">
        <ele>5</ele>
        <time>2024-03-12T18:41:49Z</time>
      </trkpt>
      <trkpt lat="48.65417" lon="-4.43121">
        <ele>4</ele>
        <time>2024-03-12T18:41:53Z</time>
      </trkpt>
      <trkpt lat="48.65419" lon="-4.43116">
        <ele>4</ele>
        <time>2024-03-12T18:41:56Z</time>
      </trkpt>
      <trkpt lat="48.65418" lon="-4.43106">
        <ele>3</ele>
        <time>2024-03-12T18:42:02Z</time>
      </trkpt>
      <trkpt lat="48.65423" lon="-4.431">
        <ele>3</ele>
        <time>2024-03-12T18:42:07Z</time>
      </trkpt>
      <trkpt lat="48.65435" lon="-4.431">
        <ele>3</ele>
        <time>2024-03-12T18:42:16Z</time>
      </trkpt>
      <trkpt lat="48.65443" lon="-4.43097">
        <ele>2</ele>
        <time>2024-03-12T18:42:23Z</time>
      </trkpt>
      <trkpt lat="48.65468" lon="-4.43074">
        <ele>1</ele>
        <time>2024-03-12T18:42:46Z</time>
      </trkpt>
      <trkpt lat="48.65476" lon="-4.43076">
        <ele>1</ele>
        <time>2024-03-12T18:42:53Z</time>
      </trkpt>
      <trkpt lat="48.6548" lon="-4.43074">
        <ele>1</ele>
        <time>2024-03-12T18:42:56Z</time>
      </trkpt>
      <trkpt lat="48.65488" lon="-4.43087">
        <ele>1</ele>
        <time>2024-03-12T18:43:06Z</time>
      </trkpt>
      <trkpt lat="48.65497" lon="-4.43109">
        <ele>2</ele>
        <time>2024-03-12T18:43:19Z</time>
      </trkpt>
      <trkpt lat="48.65505" lon="-4.43116">
        <ele>2</ele>
        <time>2024-03-12T18:43:27Z</time>
      </trkpt>
      <trkpt lat="48.65508" lon="-4.43132">
        <ele>3</ele>
        <time>2024-03-12T18:43:36Z</time>
      </trkpt>
      <trkpt lat="48.65547" lon="-4.43182">
        <ele>3</ele>
        <time>2024-03-12T18:44:16Z</time>
      </trkpt>
      <trkpt lat="48.65547" lon="-4.43192">
        <ele>3</ele>
        <time>2024-03-12T18:44:22Z</time>
      </trkpt>
      <trkpt lat="48.6554" lon="-4.43208">
        <ele>4</ele>
        <time>2024-03-12T18:44:32Z</time>
      </trkpt>
      <trkpt lat="48.65548" lon="-4.4321">
        <ele>3</ele>
        <time>2024-03-12T18:44:38Z</time>
      </trkpt>
      <trkpt lat="48.65542" lon="-4.43247">
        <ele>4</ele>
        <time>2024-03-12T18:44:59Z</time>
      </trkpt>
      <trkpt lat="48.65555" lon="-4.433">
        <ele>4</ele>
        <time>2024-03-12T18:45:28Z</time>
      </trkpt>
      <trkpt lat="48.65561" lon="-4.43352">
        <ele>5</ele>
        <time>2024-03-12T18:45:56Z</time>
      </trkpt>
      <trkpt lat="48.65557" lon="-4.43388">
        <ele>5</ele>
        <time>2024-03-12T18:46:16Z</time>
      </trkpt>
      <trkpt lat="48.65546" lon="-4.43424">
        <ele>5</ele>
        <time>2024-03-12T18:46:37Z</time>
      </trkpt>
      <trkpt lat="48.65547" lon="-4.43435">
        <ele>5</ele>
        <time>2024-03-12T18:46:43Z</time>
      </trkpt>
      <trkpt lat="48.65545" lon="-4.43439">
        <ele>5</ele>
        <time>2024-03-12T18:46:45Z</time>
      </trkpt>
      <trkpt lat="48.65541" lon="-4.43441">
        <ele>5</ele>
        <time>2024-03-12T18:46:49Z</time>
      </trkpt>
      <trkpt lat="48.6552" lon="-4.43408">
        <ele>7</ele>
        <time>2024-03-12T18:47:13Z</time>
      </trkpt>
      <trkpt lat="48.65524" lon="-4.43436">
        <ele>6</ele>
        <time>2024-03-12T18:47:28Z</time>
      </trkpt>
      <trkpt lat="48.65504" lon="-4.43448">
        <ele>7</ele>
        <time>2024-03-12T18:47:45Z</time>
      </trkpt>
      <trkpt lat="48.65489" lon="-4.43478">
        <ele>7</ele>
        <time>2024-03-12T18:48:05Z</time>
      </trkpt>
      <trkpt lat="48.65478" lon="-4.43492">
        <ele>7</ele>
        <time>2024-03-12T18:48:17Z</time>
      </trkpt>
      <trkpt lat="48.6547" lon="-4.43498">
        <ele>7</ele>
        <time>2024-03-12T18:48:24Z</time>
      </trkpt>
      <trkpt lat="48.65447" lon="-4.43505">
        <ele>7</ele>
        <time>2024-03-12T18:48:43Z</time>
      </trkpt>
      <trkpt lat="48.65428" lon="-4.43505">
        <ele>7</ele>
        <time>2024-03-12T18:48:58Z</time>
      </trkpt>
      <trkpt lat="48.65389" lon="-4.43511">
        <ele>8</ele>
        <time>2024-03-12T18:49:29Z</time>
      </trkpt>
      <trkpt lat="48.65381" lon="-4.43517">
        <ele>7</ele>
        <time>2024-03-12T18:49:36Z</time>
      </trkpt>
      <trkpt lat="48.6536" lon="-4.43519">
        <ele>8</ele>
        <time>2024-03-12T18:49:53Z</time>
      </trkpt>
      <trkpt lat="48.65363" lon="-4.43485">
        <ele>9</ele>
        <time>2024-03-12T18:50:11Z</time>
      </trkpt>
      <trkpt lat="48.6536" lon="-4.43478">
        <ele>9</ele>
        <time>2024-03-12T18:50:16Z</time>
      </trkpt>
      <trkpt lat="48.65341" lon="-4.43458">
        <ele>10</ele>
        <time>2024-03-12T18:50:34Z</time>
      </trkpt>
      <trkpt lat="48.65337" lon="-4.43455">
        <ele>10</ele>
        <time>2024-03-12T18:50:38Z</time>
      </trkpt>
      <trkpt lat="48.65335" lon="-4.43457">
        <ele>10</ele>
        <time>2024-03-12T18:50:40Z</time>
      </trkpt>
      <trkpt lat="48.65332" lon="-4.4348">
        <ele>9</ele>
        <time>2024-03-12T18:50:52Z</time>
      </trkpt>
      <trkpt lat="48.65327" lon="-4.43484">
        <ele>9</ele>
        <time>2024-03-12T18:50:57Z</time>
      </trkpt>
      <trkpt lat="48.65279" lon="-4.43468">
        <ele>6</ele>
        <time>2024-03-12T18:51:36Z</time>
      </trkpt>
      <trkpt lat="48.65271" lon="-4.43442">
        <ele>6</ele>
        <time>2024-03-12T18:51:51Z</time>
      </trkpt>
      <trkpt lat="48.65183" lon="-4.43321">
        <ele>6</ele>
        <time>2024-03-12T18:53:26Z</time>
      </trkpt>
      <trkpt lat="48.65177" lon="-4.43315">
        <ele>6</ele>
        <time>2024-03-12T18:53:32Z</time>
      </trkpt>
      <trkpt lat="48.65161" lon="-4.43306">
        <ele>6</ele>
        <time>2024-03-12T18:53:46Z</time>
      </trkpt>
      <trkpt lat="48.65114" lon="-4.43292">
        <ele>6</ele>
        <time>2024-03-12T18:54:24Z</time>
      </trkpt>
      <trkpt lat="48.65095" lon="-4.4328">
        <ele>7</ele>
        <time>2024-03-12T18:54:41Z</time>
      </trkpt>
      <trkpt lat="48.65089" lon="-4.43268">
        <ele>7</ele>
        <time>2024-03-12T18:54:49Z</time>
      </trkpt>
      <trkpt lat="48.65086" lon="-4.43244">
        <ele>8</ele>
        <time>2024-03-12T18:55:01Z</time>
      </trkpt>
      <trkpt lat="48.65074" lon="-4.43251">
        <ele>8</ele>
        <time>2024-03-12T18:55:12Z</time>
      </trkpt>
      <trkpt lat="48.65029" lon="-4.43266">
        <ele>7</ele>
        <time>2024-03-12T18:55:49Z</time>
      </trkpt>
      <trkpt lat="48.6502" lon="-4.43266">
        <ele>7</ele>
        <time>2024-03-12T18:55:56Z</time>
      </trkpt>
      <trkpt lat="48.65011" lon="-4.43262">
        <ele>7</ele>
        <time>2024-03-12T18:56:03Z</time>
      </trkpt>
      <trkpt lat="48.65002" lon="-4.43253">
        <ele>7</ele>
        <time>2024-03-12T18:56:12Z</time>
      </trkpt>
      <trkpt lat="48.64995" lon="-4.43241">
        <ele>7</ele>
        <time>2024-03-12T18:56:20Z</time>
      </trkpt>
      <trkpt lat="48.64989" lon="-4.43223">
        <ele>8</ele>
        <time>2024-03-12T18:56:31Z</time>
      </trkpt>
      <trkpt lat="48.64966" lon="-4.43141">
        <ele>9</ele>
        <time>2024-03-12T18:57:18Z</time>
      </trkpt>
      <trkpt lat="48.64956" lon="-4.43094">
        <ele>10</ele>
        <time>2024-03-12T18:57:44Z</time>
      </trkpt>
      <trkpt lat="48.64957" lon="-4.43071">
        <ele>9</ele>
        <time>2024-03-12T18:57:57Z</time>
      </trkpt>
      <trkpt lat="48.64941" lon="-4.43056">
        <ele>9</ele>
        <time>2024-03-12T18:58:12Z</time>
      </trkpt>
      <trkpt lat="48.64933" lon="-4.43052">
        <ele>9</ele>
        <time>2024-03-12T18:58:18Z</time>
      </trkpt>
      <trkpt lat="48.64904" lon="-4.43045">
        <ele>10</ele>
        <time>2024-03-12T18:58:42Z</time>
      </trkpt>
      <trkpt lat="48.64883" lon="-4.43032">
        <ele>10</ele>
        <time>2024-03-12T18:59:00Z</time>
      </trkpt>
      <trkpt lat="48.64875" lon="-4.43022">
        <ele>10</ele>
        <time>2024-03-12T18:59:08Z</time>
      </trkpt>
      <trkpt lat="48.64854" lon="-4.42956">
        <ele>11</ele>
        <time>2024-03-12T18:59:47Z</time>
      </trkpt>
      <trkpt lat="48.64847" lon="-4.42949">
        <ele>11</ele>
        <time>2024-03-12T18:59:54Z</time>
      </trkpt>
      <trkpt lat="48.64816" lon="-4.42953">
        <ele>11</ele>
        <time>2024-03-12T19:00:19Z</time>
      </trkpt>
      <trkpt lat="48.64811" lon="-4.42951">
        <ele>11</ele>
        <time>2024-03-12T19:00:23Z</time>
      </trkpt>
      <trkpt lat="48.64787" lon="-4.42892">
        <ele>10</ele>
        <time>2024-03-12T19:01:00Z</time>
      </trkpt>
      <trkpt lat="48.64781" lon="-4.42865">
        <ele>11</ele>
        <time>2024-03-12T19:01:15Z</time>
      </trkpt>
      <trkpt lat="48.64764" lon="-4.42822">
        <ele>10</ele>
        <time>2024-03-12T19:01:41Z</time>
      </trkpt>
      <trkpt lat="48.64751" lon="-4.4278">
        <ele>11</ele>
        <time>2024-03-12T19:02:06Z</time>
      </trkpt>
      <trkpt lat="48.64712" lon="-4.42595">
        <ele>8</ele>
        <time>2024-03-12T19:03:48Z</time>
      </trkpt>
      <trkpt lat="48.64701" lon="-4.42563">
        <ele>8</ele>
        <time>2024-03-12T19:04:07Z</time>
      </trkpt>
      <trkpt lat="48.64698" lon="-4.42549">
        <ele>7</ele>
        <time>2024-03-12T19:04:15Z</time>
      </trkpt>
      <trkpt lat="48.6469" lon="-4.42452">
        <ele>7</ele>
        <time>2024-03-12T19:05:07Z</time>
      </trkpt>
      <trkpt lat="48.64667" lon="-4.42391">
        <ele>8</ele>
        <time>2024-03-12T19:05:44Z</time>
      </trkpt>
      <trkpt lat="48.6466" lon="-4.42379">
        <ele>7</ele>
        <time>2024-03-12T19:05:53Z</time>
      </trkpt>
      <trkpt lat="48.64626" lon="-4.4234">
        <ele>6</ele>
        <time>2024-03-12T19:06:27Z</time>
      </trkpt>
      <trkpt lat="48.6462" lon="-4.42329">
        <ele>6</ele>
        <time>2024-03-12T19:06:34Z</time>
      </trkpt>
      <trkpt lat="48.646" lon="-4.42239">
        <ele>8</ele>
        <time>2024-03-12T19:07:25Z</time>
      </trkpt>
      <trkpt lat="48.64583" lon="-4.42142">
        <ele>7</ele>
        <time>2024-03-12T19:08:18Z</time>
      </trkpt>
      <trkpt lat="48.64575" lon="-4.42109">
        <ele>7</ele>
        <time>2024-03-12T19:08:36Z</time>
      </trkpt>
      <trkpt lat="48.64554" lon="-4.42053">
        <ele>6</ele>
        <time>2024-03-12T19:09:10Z</time>
      </trkpt>
      <trkpt lat="48.64529" lon="-4.42004">
        <ele>6</ele>
        <time>2024-03-12T19:09:43Z</time>
      </trkpt>
      <trkpt lat="48.64485" lon="-4.4196">
        <ele>6</ele>
        <time>2024-03-12T19:10:25Z</time>
      </trkpt>
      <trkpt lat="48.64393" lon="-4.41813">
        <ele>8</ele>
        <time>2024-03-12T19:12:12Z</time>
      </trkpt>
      <trkpt lat="48.6432" lon="-4.41866">
        <ele>7</ele>
        <time>2024-03-12T19:13:17Z</time>
      </trkpt>
      <trkpt lat="48.64315" lon="-4.4185">
        <ele>7</ele>
        <time>2024-03-12T19:13:27Z</time>
      </trkpt>
      <trkpt lat="48.64301" lon="-4.41834">
        <ele>7</ele>
        <time>2024-03-12T19:13:41Z</time>
      </trkpt>
      <trkpt lat="48.64295" lon="-4.41821">
        <ele>8</ele>
        <time>2024-03-12T19:13:49Z</time>
      </trkpt>
      <trkpt lat="48.64275" lon="-4.4181">
        <ele>7</ele>
        <time>2024-03-12T19:14:06Z</time>
      </trkpt>
      <trkpt lat="48.64265" lon="-4.41817">
        <ele>6</ele>
        <time>2024-03-12T19:14:15Z</time>
      </trkpt>
      <trkpt lat="48.64259" lon="-4.41818">
        <ele>6</ele>
        <time>2024-03-12T19:14:20Z</time>
      </trkpt>
      <trkpt lat="48.64232" lon="-4.41786">
        <ele>6</ele>
        <time>2024-03-12T19:14:47Z</time>
      </trkpt>
      <trkpt lat="48.64226" lon="-4.41785">
        <ele>5</ele>
        <time>2024-03-12T19:14:52Z</time>
      </trkpt>
      <trkpt lat="48.64215" lon="-4.41772">
        <ele>5</ele>
        <time>2024-03-12T19:15:03Z</time>
      </trkpt>
      <trkpt lat="48.64203" lon="-4.41763">
        <ele>4</ele>
        <time>2024-03-12T19:15:14Z</time>
      </trkpt>
      <trkpt lat="48.64208" lon="-4.4175">
        <ele>5</ele>
        <time>2024-03-12T19:15:22Z</time>
      </trkpt>
      <trkpt lat="48.64209" lon="-4.41736">
        <ele>5</ele>
        <time>2024-03-12T19:15:29Z</time>
      </trkpt>
      <trkpt lat="48.64201" lon="-4.41713">
        <ele>5</ele>
        <time>2024-03-12T19:15:43Z</time>
      </trkpt>
      <trkpt lat="48.64189" lon="-4.41693">
        <ele>5</ele>
        <time>2024-03-12T19:15:57Z</time>
      </trkpt>
      <trkpt lat="48.64169" lon="-4.41642">
        <ele>5</ele>
        <time>2024-03-12T19:16:29Z</time>
      </trkpt>
      <trkpt lat="48.64167" lon="-4.41625">
        <ele>5</ele>
        <time>2024-03-12T19:16:38Z</time>
      </trkpt>
      <trkpt lat="48.64164" lon="-4.41618">
        <ele>5</ele>
        <time>2024-03-12T19:16:42Z</time>
      </trkpt>
      <trkpt lat="48.64161" lon="-4.41596">
        <ele>5</ele>
        <time>2024-03-12T19:16:54Z</time>
      </trkpt>
      <trkpt lat="48.64164" lon="-4.41558">
        <ele>6</ele>
        <time>2024-03-12T19:17:14Z</time>
      </trkpt>
      <trkpt lat="48.64151" lon="-4.41482">
        <ele>6</ele>
        <time>2024-03-12T19:17:56Z</time>
      </trkpt>
      <trkpt lat="48.64154" lon="-4.41467">
        <ele>6</ele>
        <time>2024-03-12T19:18:04Z</time>
      </trkpt>
      <trkpt lat="48.64192" lon="-4.41449">
        <ele>8</ele>
        <time>2024-03-12T19:18:36Z</time>
      </trkpt>
      <trkpt lat="48.64194" lon="-4.41444">
        <ele>8</ele>
        <time>2024-03-12T19:18:39Z</time>
      </trkpt>
      <trkpt lat="48.6419" lon="-4.41411">
        <ele>8</ele>
        <time>2024-03-12T19:18:57Z</time>
      </trkpt>
      <trkpt lat="48.64188" lon="-4.41409">
        <ele>8</ele>
        <time>2024-03-12T19:18:59Z</time>
      </trkpt>
      <trkpt lat="48.64159" lon="-4.41408">
        <ele>6</ele>
        <time>2024-03-12T19:19:22Z</time>
      </trkpt>
      <trkpt lat="48.64151" lon="-4.4135">
        <ele>6</ele>
        <time>2024-03-12T19:19:53Z</time>
      </trkpt>
      <trkpt lat="48.64138" lon="-4.41301">
        <ele>5</ele>
        <time>2024-03-12T19:20:21Z</time>
      </trkpt>
      <trkpt lat="48.64141" lon="-4.41283">
        <ele>5</ele>
        <time>2024-03-12T19:20:31Z</time>
      </trkpt>
      <trkpt lat="48.6413" lon="-4.4123">
        <ele>4</ele>
        <time>2024-03-12T19:21:01Z</time>
      </trkpt>
      <trkpt lat="48.64129" lon="-4.41191">
        <ele>3</ele>
        <time>2024-03-12T19:21:21Z</time>
      </trkpt>
      <trkpt lat="48.64132" lon="-4.41181">
        <ele>3</ele>
        <time>2024-03-12T19:21:27Z</time>
      </trkpt>
      <trkpt lat="48.64133" lon="-4.41137">
        <ele>2</ele>
        <time>2024-03-12T19:21:50Z</time>
      </trkpt>
      <trkpt lat="48.64138" lon="-4.411">
        <ele>3</ele>
        <time>2024-03-12T19:22:10Z</time>
      </trkpt>
      <trkpt lat="48.64144" lon="-4.41018">
        <ele>2</ele>
        <time>2024-03-12T19:22:54Z</time>
      </trkpt>
      <trkpt lat="48.64153" lon="-4.41006">
        <ele>3</ele>
        <time>2024-03-12T19:23:04Z</time>
      </trkpt>
      <trkpt lat="48.64158" lon="-4.41003">
        <ele>3</ele>
        <time>2024-03-12T19:23:08Z</time>
      </trkpt>
      <trkpt lat="48.64165" lon="-4.41007">
        <ele>3</ele>
        <time>2024-03-12T19:23:14Z</time>
      </trkpt>
      <trkpt lat="48.6417" lon="-4.41007">
        <ele>3</ele>
        <time>2024-03-12T19:23:18Z</time>
      </trkpt>
      <trkpt lat="48.64168" lon="-4.40961">
        <ele>4</ele>
        <time>2024-03-12T19:23:42Z</time>
      </trkpt>
      <trkpt lat="48.64174" lon="-4.4092">
        <ele>4</ele>
        <time>2024-03-12T19:24:04Z</time>
      </trkpt>
      <trkpt lat="48.64164" lon="-4.4092">
        <ele>4</ele>
        <time>2024-03-12T19:24:12Z</time>
      </trkpt>
      <trkpt lat="48.64159" lon="-4.40903">
        <ele>4</ele>
        <time>2024-03-12T19:24:22Z</time>
      </trkpt>
      <trkpt lat="48.64144" lon="-4.40828">
        <ele>3</ele>
        <time>2024-03-12T19:25:04Z</time>
      </trkpt>
      <trkpt lat="48.64128" lon="-4.40786">
        <ele>3</ele>
        <time>2024-03-12T19:25:29Z</time>
      </trkpt>
      <trkpt lat="48.64126" lon="-4.40759">
        <ele>3</ele>
        <time>2024-03-12T19:25:44Z</time>
      </trkpt>
      <trkpt lat="48.64114" lon="-4.4072">
        <ele>3</ele>
        <time>2024-03-12T19:26:07Z</time>
      </trkpt>
      <trkpt lat="48.6411" lon="-4.40699">
        <ele>2</ele>
        <time>2024-03-12T19:26:18Z</time>
      </trkpt>
      <trkpt lat="48.64111" lon="-4.4069">
        <ele>2</ele>
        <time>2024-03-12T19:26:23Z</time>
      </trkpt>
      <trkpt lat="48.64121" lon="-4.40671">
        <ele>2</ele>
        <time>2024-03-12T19:26:36Z</time>
      </trkpt>
      <trkpt lat="48.64125" lon="-4.40654">
        <ele>3</ele>
        <time>2024-03-12T19:26:45Z</time>
      </trkpt>
      <trkpt lat="48.64123" lon="-4.40616">
        <ele>3</ele>
        <time>2024-03-12T19:27:06Z</time>
      </trkpt>
      <trkpt lat="48.64118" lon="-4.40593">
        <ele>3</ele>
        <time>2024-03-12T19:27:18Z</time>
      </trkpt>
      <trkpt lat="48.64121" lon="-4.4057">
        <ele>3</ele>
        <time>2024-03-12T19:27:31Z</time>
      </trkpt>
      <trkpt lat="48.64174" lon="-4.40499">
        <ele>3</ele>
        <time>2024-03-12T19:28:27Z</time>
      </trkpt>
      <trkpt lat="48.64179" lon="-4.40487">
        <ele>3</ele>
        <time>2024-03-12T19:28:35Z</time>
      </trkpt>
      <trkpt lat="48.64146" lon="-4.40418">
        <ele>3</ele>
        <time>2024-03-12T19:29:20Z</time>
      </trkpt>
      <trkpt lat="48.64126" lon="-4.40365">
        <ele>2</ele>
        <time>2024-03-12T19:29:52Z</time>
      </trkpt>
      <trkpt lat="48.64083" lon="-4.40232">
        <ele>2</ele>
        <time>2024-03-12T19:31:11Z</time>
      </trkpt>
      <trkpt lat="48.64079" lon="-4.40226">
        <ele>2</ele>
        <time>2024-03-12T19:31:15Z</time>
      </trkpt>
      <trkpt lat="48.64072" lon="-4.40225">
        <ele>2</ele>
        <time>2024-03-12T19:31:21Z</time>
      </trkpt>
      <trkpt lat="48.64057" lon="-4.40243">
        <ele>2</ele>
        <time>2024-03-12T19:31:36Z</time>
      </trkpt>
      <trkpt lat="48.64047" lon="-4.40247">
        <ele>2</ele>
        <time>2024-03-12T19:31:44Z</time>
      </trkpt>
      <trkpt lat="48.64041" lon="-4.40243">
        <ele>2</ele>
        <time>2024-03-12T19:31:50Z</time>
      </trkpt>
      <trkpt lat="48.64035" lon="-4.40233">
        <ele>2</ele>
        <time>2024-03-12T19:31:57Z</time>
      </trkpt>
      <trkpt lat="48.64026" lon="-4.40209">
        <ele>3</ele>
        <time>2024-03-12T19:32:11Z</time>
      </trkpt>
      <trkpt lat="48.64013" lon="-4.40214">
        <ele>3</ele>
        <time>2024-03-12T19:32:22Z</time>
      </trkpt>
      <trkpt lat="48.6395" lon="-4.4021">
        <ele>3</ele>
        <time>2024-03-12T19:33:13Z</time>
      </trkpt>
      <trkpt lat="48.6394" lon="-4.40196">
        <ele>3</ele>
        <time>2024-03-12T19:33:23Z</time>
      </trkpt>
      <trkpt lat="48.63931" lon="-4.40174">
        <ele>3</ele>
        <time>2024-03-12T19:33:37Z</time>
      </trkpt>
      <trkpt lat="48.63917" lon="-4.40161">
        <ele>3</ele>
        <time>2024-03-12T19:33:50Z</time>
      </trkpt>
      <trkpt lat="48.63905" lon="-4.40142">
        <ele>3</ele>
        <time>2024-03-12T19:34:04Z</time>
      </trkpt>
      <trkpt lat="48.63898" lon="-4.40123">
        <ele>3</ele>
        <time>2024-03-12T19:34:16Z</time>
      </trkpt>
      <trkpt lat="48.63886" lon="-4.40106">
        <ele>3</ele>
        <time>2024-03-12T19:34:29Z</time>
      </trkpt>
      <trkpt lat="48.63838" lon="-4.40065">
        <ele>2</ele>
        <time>2024-03-12T19:35:13Z</time>
      </trkpt>
      <trkpt lat="48.63826" lon="-4.40041">
        <ele>2</ele>
        <time>2024-03-12T19:35:29Z</time>
      </trkpt>
      <trkpt lat="48.63824" lon="-4.40014">
        <ele>3</ele>
        <time>2024-03-12T19:35:43Z</time>
      </trkpt>
      <trkpt lat="48.63831" lon="-4.39941">
        <ele>3</ele>
        <time>2024-03-12T19:36:22Z</time>
      </trkpt>
      <trkpt lat="48.63823" lon="-4.39833">
        <ele>3</ele>
        <time>2024-03-12T19:37:20Z</time>
      </trkpt>
      <trkpt lat="48.63818" lon="-4.39809">
        <ele>3</ele>
        <time>2024-03-12T19:37:33Z</time>
      </trkpt>
      <trkpt lat="48.63807" lon="-4.39816">
        <ele>3</ele>
        <time>2024-03-12T19:37:43Z</time>
      </trkpt>
      <trkpt lat="48.63788" lon="-4.39818">
        <ele>3</ele>
        <time>2024-03-12T19:37:58Z</time>
      </trkpt>
      <trkpt lat="48.6377" lon="-4.39816">
        <ele>3</ele>
        <time>2024-03-12T19:38:12Z</time>
      </trkpt>
      <trkpt lat="48.63756" lon="-4.398">
        <ele>3</ele>
        <time>2024-03-12T19:38:26Z</time>
      </trkpt>
      <trkpt lat="48.63748" lon="-4.3977">
        <ele>3</ele>
        <time>2024-03-12T19:38:44Z</time>
      </trkpt>
      <trkpt lat="48.63745" lon="-4.39714">
        <ele>4</ele>
        <time>2024-03-12T19:39:13Z</time>
      </trkpt>
      <trkpt lat="48.63739" lon="-4.39686">
        <ele>4</ele>
        <time>2024-03-12T19:39:29Z</time>
      </trkpt>
      <trkpt lat="48.63726" lon="-4.39693">
        <ele>4</ele>
        <time>2024-03-12T19:39:40Z</time>
      </trkpt>
      <trkpt lat="48.63651" lon="-4.39717">
        <ele>4</ele>
        <time>2024-03-12T19:40:41Z</time>
      </trkpt>
      <trkpt lat="48.63637" lon="-4.39726">
        <ele>5</ele>
        <time>2024-03-12T19:40:54Z</time>
      </trkpt>
      <trkpt lat="48.63647" lon="-4.39766">
        <ele>5</ele>
        <time>2024-03-12T19:41:16Z</time>
      </trkpt>
      <trkpt lat="48.63648" lon="-4.39786">
        <ele>4</ele>
        <time>2024-03-12T19:41:27Z</time>
      </trkpt>
      <trkpt lat="48.63645" lon="-4.39801">
        <ele>4</ele>
        <time>2024-03-12T19:41:35Z</time>
      </trkpt>
      <trkpt lat="48.63622" lon="-4.39865">
        <ele>5</ele>
        <time>2024-03-12T19:42:14Z</time>
      </trkpt>
      <trkpt lat="48.63619" lon="-4.39883">
        <ele>5</ele>
        <time>2024-03-12T19:42:23Z</time>
      </trkpt>
      <trkpt lat="48.63631" lon="-4.39942">
        <ele>4</ele>
        <time>2024-03-12T19:42:56Z</time>
      </trkpt>
      <trkpt lat="48.63642" lon="-4.40064">
        <ele>4</ele>
        <time>2024-03-12T19:44:01Z</time>
      </trkpt>
      <trkpt lat="48.63649" lon="-4.40087">
        <ele>4</ele>
        <time>2024-03-12T19:44:15Z</time>
      </trkpt>
      <trkpt lat="48.6365" lon="-4.40101">
        <ele>4</ele>
        <time>2024-03-12T19:44:22Z</time>
      </trkpt>
      <trkpt lat="48.63664" lon="-4.40139">
        <ele>4</ele>
        <time>2024-03-12T19:44:45Z</time>
      </trkpt>
      <trkpt lat="48.63682" lon="-4.40174">
        <ele>4</ele>
        <time>2024-03-12T19:45:09Z</time>
      </trkpt>
      <trkpt lat="48.63691" lon="-4.40199">
        <ele>4</ele>
        <time>2024-03-12T19:45:24Z</time>
      </trkpt>
      <trkpt lat="48.63734" lon="-4.4023">
        <ele>2</ele>
        <time>2024-03-12T19:46:02Z</time>
      </trkpt>
      <trkpt lat="48.63741" lon="-4.40238">
        <ele>2</ele>
        <time>2024-03-12T19:46:09Z</time>
      </trkpt>
      <trkpt lat="48.63736" lon="-4.40286">
        <ele>2</ele>
        <time>2024-03-12T19:46:34Z</time>
      </trkpt>
      <trkpt lat="48.63701" lon="-4.40362">
        <ele>3</ele>
        <time>2024-03-12T19:47:24Z</time>
      </trkpt>
      <trkpt lat="48.63691" lon="-4.40394">
        <ele>3</ele>
        <time>2024-03-12T19:47:42Z</time>
      </trkpt>
      <trkpt lat="48.63686" lon="-4.40593">
        <ele>4</ele>
        <time>2024-03-12T19:49:28Z</time>
      </trkpt>
      <trkpt lat="48.63682" lon="-4.40613">
        <ele>4</ele>
        <time>2024-03-12T19:49:39Z</time>
      </trkpt>
      <trkpt lat="48.63675" lon="-4.4062">
        <ele>5</ele>
        <time>2024-03-12T19:49:45Z</time>
      </trkpt>
      <trkpt lat="48.63694" lon="-4.40656">
        <ele>5</ele>
        <time>2024-03-12T19:50:10Z</time>
      </trkpt>
      <trkpt lat="48.63704" lon="-4.40665">
        <ele>6</ele>
        <time>2024-03-12T19:50:19Z</time>
      </trkpt>
      <trkpt lat="48.63715" lon="-4.40671">
        <ele>6</ele>
        <time>2024-03-12T19:50:28Z</time>
      </trkpt>
      <trkpt lat="48.63761" lon="-4.4068">
        <ele>5</ele>
        <time>2024-03-12T19:51:06Z</time>
      </trkpt>
      <trkpt lat="48.63767" lon="-4.40692">
        <ele>5</ele>
        <time>2024-03-12T19:51:14Z</time>
      </trkpt>
      <trkpt lat="48.63765" lon="-4.40728">
        <ele>7</ele>
        <time>2024-03-12T19:51:33Z</time>
      </trkpt>
      <trkpt lat="48.63795" lon="-4.40768">
        <ele>6</ele>
        <time>2024-03-12T19:52:05Z</time>
      </trkpt>
      <trkpt lat="48.63779" lon="-4.41001">
        <ele>7</ele>
        <time>2024-03-12T19:54:09Z</time>
      </trkpt>
      <trkpt lat="48.63776" lon="-4.4101">
        <ele>7</ele>
        <time>2024-03-12T19:54:14Z</time>
      </trkpt>
      <trkpt lat="48.63798" lon="-4.4117">
        <ele>6</ele>
        <time>2024-03-12T19:55:40Z</time>
      </trkpt>
      <trkpt lat="48.63797" lon="-4.41213">
        <ele>6</ele>
        <time>2024-03-12T19:56:03Z</time>
      </trkpt>
      <trkpt lat="48.63789" lon="-4.41288">
        <ele>5</ele>
        <time>2024-03-12T19:56:43Z</time>
      </trkpt>
      <trkpt lat="48.63752" lon="-4.41274">
        <ele>7</ele>
        <time>2024-03-12T19:57:14Z</time>
      </trkpt>
      <trkpt lat="48.63681" lon="-4.41238">
        <ele>9</ele>
        <time>2024-03-12T19:58:14Z</time>
      </trkpt>
      <trkpt lat="48.63659" lon="-4.41232">
        <ele>9</ele>
        <time>2024-03-12T19:58:32Z</time>
      </trkpt>
      <trkpt lat="48.63613" lon="-4.41209">
        <ele>11</ele>
        <time>2024-03-12T19:59:11Z</time>
      </trkpt>
      <trkpt lat="48.63602" lon="-4.41206">
        <ele>11</ele>
        <time>2024-03-12T19:59:20Z</time>
      </trkpt>
      <trkpt lat="48.6358" lon="-4.41208">
        <ele>12</ele>
        <time>2024-03-12T19:59:37Z</time>
      </trkpt>
      <trkpt lat="48.63575" lon="-4.41204">
        <ele>12</ele>
        <time>2024-03-12T19:59:42Z</time>
      </trkpt>
      <trkpt lat="48.6357" lon="-4.41204">
        <ele>12</ele>
        <time>2024-03-12T19:59:46Z</time>
      </trkpt>
      <trkpt lat="48.63528" lon="-4.41212">
        <ele>13</ele>
        <time>2024-03-12T20:00:20Z</time>
      </trkpt>
      <trkpt lat="48.63477" lon="-4.41076">
        <ele>15</ele>
        <time>2024-03-12T20:01:42Z</time>
      </trkpt>
      <trkpt lat="48.63513" lon="-4.41068">
        <ele>15</ele>
        <time>2024-03-12T20:02:11Z</time>
      </trkpt>
    </trkseg>
  </trk>
</gpx>